Time;durP1;ratioP1;P1;durP2;ratioP2;P2;SDS_P1;SDS_P2;PMS_P1;PMS_P2;Temp;Humidity;BMP_temperature;BMP_pressure;BME280_temperature;BME280_humidity;BME280_pressure;Samples;Min_cycle;Max_cycle;Signal;HPM_P1;HPM_P2
2022/08/07 00:00:40;;;;;;;10.57;6.25;;;10.10;98.90;;;;;;5039424;28;20058;-78
2022/08/07 00:03:08;;;;;;;8.55;6.40;;;10.10;99.90;;;;;;5040850;28;20026;-78
2022/08/07 00:05:33;;;;;;;9.27;6.28;;;10.10;99.90;;;;;;5041436;28;20037;-78
2022/08/07 00:07:59;;;;;;;8.70;5.93;;;10.20;99.90;;;;;;5040465;28;20022;-77
2022/08/07 00:10:24;;;;;;;10.90;6.18;;;10.10;99.90;;;;;;5040725;28;20014;-78
2022/08/07 00:12:50;;;;;;;9.48;6.38;;;10.10;99.20;;;;;;5041055;28;20034;-78
2022/08/07 00:15:16;;;;;;;9.85;6.18;;;10.20;72.30;;;;;;5040774;28;20033;-78
2022/08/07 00:17:41;;;;;;;9.93;6.47;;;10.30;25.30;;;;;;5040967;28;20081;-78
2022/08/07 00:20:07;;;;;;;9.10;6.22;;;10.40;90.60;;;;;;5040906;28;20024;-78
2022/08/07 00:22:33;;;;;;;8.40;6.03;;;10.40;75.90;;;;;;5040618;28;20014;-78
2022/08/07 00:24:58;;;;;;;8.45;6.13;;;10.40;1.00;;;;;;5040180;28;20037;-78
2022/08/07 00:27:24;;;;;;;9.07;6.43;;;10.40;1.00;;;;;;5040812;28;20053;-78
2022/08/07 00:29:49;;;;;;;9.63;6.28;;;10.60;42.40;;;;;;5040487;28;20077;-78
2022/08/07 00:32:15;;;;;;;12.75;7.53;;;10.60;32.30;;;;;;5040023;28;20050;-78
2022/08/07 00:34:41;;;;;;;12.00;7.60;;;10.60;1.00;;;;;;5038467;28;20033;-78
2022/08/07 00:37:07;;;;;;;11.50;6.68;;;10.60;1.00;;;;;;5033671;28;20006;-78
2022/08/07 00:39:34;;;;;;;10.82;7.50;;;10.60;18.20;;;;;;5035229;28;20017;-78
2022/08/07 00:42:00;;;;;;;9.27;6.60;;;10.50;54.30;;;;;;5039301;28;20040;-78
2022/08/07 00:44:26;;;;;;;8.63;6.43;;;10.40;1.00;;;;;;5040570;28;20014;-77
2022/08/07 00:46:52;;;;;;;12.48;8.52;;;10.40;32.80;;;;;;5040156;28;20033;-78
2022/08/07 00:49:17;;;;;;;12.40;7.45;;;10.40;78.60;;;;;;5040247;28;20041;-78
2022/08/07 00:51:44;;;;;;;10.15;6.90;;;10.10;1.00;;;;;;5039109;28;20014;-78
2022/08/07 00:54:10;;;;;;;12.80;8.40;;;10.20;18.50;;;;;;5040192;28;20018;-78
2022/08/07 00:56:36;;;;;;;14.65;8.85;;;10.10;1.00;;;;;;5039954;28;20030;-78
2022/08/07 00:59:04;;;;;;;12.02;8.43;;;10.10;1.00;;;;;;5039547;28;20038;-78
2022/08/07 01:01:30;;;;;;;12.40;8.82;;;10.20;34.70;;;;;;5039938;28;20026;-77
2022/08/07 01:03:55;;;;;;;14.07;8.35;;;10.30;99.50;;;;;;5040237;28;20026;-78
2022/08/07 01:06:21;;;;;;;14.40;9.35;;;10.30;99.90;;;;;;5040052;28;20022;-78
2022/08/07 01:08:47;;;;;;;13.25;8.20;;;10.10;90.00;;;;;;5039712;28;20021;-78
2022/08/07 01:11:13;;;;;;;15.13;9.38;;;10.10;58.10;;;;;;5039946;28;20017;-78
2022/08/07 01:13:40;;;;;;;13.50;8.55;;;10.10;63.50;;;;;;5039884;28;20041;-78
2022/08/07 01:16:07;;;;;;;13.63;8.75;;;10.10;75.30;;;;;;5039897;28;20017;-77
2022/08/07 01:18:33;;;;;;;12.25;9.07;;;10.20;84.80;;;;;;5039708;28;20018;-78
2022/08/07 01:21:16;;;;;;;13.07;8.77;;;10.10;18.90;;;;;;5039732;28;20041;-78
2022/08/07 01:23:44;;;;;;;15.25;9.82;;;10.20;1.00;;;;;;5039478;28;20081;-77
2022/08/07 01:26:13;;;;;;;16.48;9.50;;;10.10;1.00;;;;;;5039591;28;20021;-78
2022/08/07 01:28:43;;;;;;;12.82;8.90;;;10.30;33.60;;;;;;5039633;28;20022;-77
2022/08/07 01:31:09;;;;;;;13.80;9.63;;;10.20;1.00;;;;;;5039216;28;20041;-78
2022/08/07 01:33:35;;;;;;;13.27;8.60;;;10.30;1.00;;;;;;5038630;28;20057;-78
2022/08/07 01:36:02;;;;;;;12.35;8.70;;;10.30;1.00;;;;;;5037210;28;20090;-78
2022/08/07 01:38:29;;;;;;;14.25;8.63;;;10.40;1.00;;;;;;5037778;28;20022;-78
2022/08/07 01:40:58;;;;;;;11.98;8.40;;;10.40;1.00;;;;;;5038076;28;20053;-78
2022/08/07 01:43:26;;;;;;;12.38;8.32;;;10.60;97.50;;;;;;5039369;28;20045;-78
2022/08/07 01:45:53;;;;;;;12.52;9.00;;;10.40;1.00;;;;;;5039523;28;20018;-77
2022/08/07 01:48:19;;;;;;;12.25;8.52;;;10.40;73.90;;;;;;5039367;28;20494;-77
2022/08/07 01:51:03;;;;;;;12.05;8.70;;;10.40;99.90;;;;;;5039354;28;20030;-78
2022/08/07 01:53:33;;;;;;;14.63;9.23;;;10.40;99.90;;;;;;5038897;28;20038;-78
2022/08/07 01:56:04;;;;;;;13.33;9.50;;;10.40;99.90;;;;;;5038996;28;20022;-78
2022/08/07 01:58:33;;;;;;;13.15;9.07;;;10.30;99.90;;;;;;5039146;28;20255;-77
2022/08/07 02:01:03;;;;;;;16.13;9.48;;;10.40;99.90;;;;;;5039208;28;20037;-78
2022/08/07 02:03:32;;;;;;;13.50;9.63;;;10.40;99.90;;;;;;5039064;28;20044;-78
2022/08/07 02:06:05;;;;;;;16.83;10.13;;;10.40;99.90;;;;;;5039179;28;20014;-78
2022/08/07 02:08:36;;;;;;;14.82;9.18;;;10.30;99.90;;;;;;5038966;28;20034;-78
2022/08/07 02:11:03;;;;;;;14.68;9.63;;;10.10;99.90;;;;;;5039152;28;20034;-78
2022/08/07 02:13:32;;;;;;;13.10;8.95;;;10.30;99.90;;;;;;5038849;28;20044;-78
2022/08/07 02:16:00;;;;;;;12.13;8.70;;;10.30;99.90;;;;;;5038542;28;20018;-77
2022/08/07 02:18:28;;;;;;;15.95;10.57;;;10.30;99.90;;;;;;5038389;28;20022;-77
2022/08/07 02:20:56;;;;;;;12.70;9.27;;;10.40;99.90;;;;;;5038909;28;20030;-78
2022/08/07 02:23:23;;;;;;;13.27;9.48;;;10.20;99.90;;;;;;5038715;28;20022;-78
2022/08/07 02:25:49;;;;;;;12.05;8.40;;;10.20;99.90;;;;;;5038805;28;20014;-78
2022/08/07 02:28:17;;;;;;;13.38;8.77;;;10.10;99.90;;;;;;5038878;28;20030;-78
2022/08/07 02:30:44;;;;;;;13.75;8.93;;;10.10;99.90;;;;;;5039078;28;20021;-78
2022/08/07 02:33:12;;;;;;;12.45;8.52;;;10.00;99.90;;;;;;5038058;28;20099;-78
2022/08/07 02:35:39;;;;;;;13.98;8.73;;;9.90;99.90;;;;;;5035341;28;20497;-78
2022/08/07 02:38:07;;;;;;;14.05;9.23;;;10.10;99.90;;;;;;5035358;28;20022;-78
2022/08/07 02:40:33;;;;;;;11.75;7.90;;;10.00;99.90;;;;;;5037276;28;20034;-77
2022/08/07 02:43:00;;;;;;;14.10;8.23;;;10.10;99.90;;;;;;5038175;28;20030;-78
2022/08/07 02:45:29;;;;;;;13.23;8.82;;;10.10;99.90;;;;;;5038800;28;20022;-77
2022/08/07 02:47:54;;;;;;;12.60;8.48;;;10.10;99.90;;;;;;5038360;28;20041;-78
2022/08/07 02:50:20;;;;;;;12.68;8.40;;;10.00;99.90;;;;;;5038661;28;20013;-77
2022/08/07 02:52:54;;;;;;;13.52;8.60;;;10.00;99.90;;;;;;5038648;28;20014;-78
2022/08/07 02:55:25;;;;;;;13.02;8.43;;;10.00;99.90;;;;;;5038791;28;20021;-78
2022/08/07 02:57:53;;;;;;;15.98;8.57;;;9.90;99.90;;;;;;5038934;28;20022;-78
2022/08/07 03:00:19;;;;;;;13.57;9.10;;;10.00;99.90;;;;;;5038589;28;20026;-78
2022/08/07 03:02:47;;;;;;;13.40;9.52;;;10.00;99.90;;;;;;5038604;28;20015;-78
2022/08/07 03:05:14;;;;;;;11.95;8.52;;;10.10;99.90;;;;;;5038479;28;20017;-78
2022/08/07 03:07:40;;;;;;;13.13;8.73;;;10.10;99.90;;;;;;5038515;28;20028;-77
2022/08/07 03:10:08;;;;;;;12.52;8.70;;;10.00;99.90;;;;;;5038443;28;20014;-77
2022/08/07 03:12:35;;;;;;;14.00;8.82;;;9.90;99.90;;;;;;5038450;28;20052;-78
2022/08/07 03:15:02;;;;;;;14.15;8.05;;;10.00;99.90;;;;;;5039433;28;20029;-78
2022/08/07 03:17:28;;;;;;;11.13;7.65;;;10.00;99.90;;;;;;5042300;28;20041;-78
2022/08/07 03:19:54;;;;;;;11.23;7.78;;;10.00;99.90;;;;;;5041669;28;20041;-78
2022/08/07 03:22:22;;;;;;;12.07;7.45;;;10.00;99.90;;;;;;5041379;28;20010;-78
2022/08/07 03:24:48;;;;;;;10.35;7.20;;;10.10;99.90;;;;;;5041622;28;20105;-78
2022/08/07 03:27:15;;;;;;;13.18;8.38;;;10.10;99.90;;;;;;5042065;28;20022;-78
2022/08/07 03:29:47;;;;;;;11.75;7.65;;;10.00;99.90;;;;;;5041821;28;20020;-78
2022/08/07 03:32:14;;;;;;;9.23;6.75;;;10.10;99.90;;;;;;5041624;28;20065;-77
2022/08/07 03:34:42;;;;;;;12.27;7.38;;;10.20;99.90;;;;;;5041227;28;20014;-78
2022/08/07 03:37:09;;;;;;;11.18;7.40;;;10.10;99.90;;;;;;5040182;28;20030;-78
2022/08/07 03:39:37;;;;;;;12.85;7.65;;;10.00;99.90;;;;;;5039710;28;20089;-78
2022/08/07 03:42:04;;;;;;;13.13;8.63;;;10.00;99.90;;;;;;5041126;28;20014;-78
2022/08/07 03:44:34;;;;;;;13.30;7.13;;;10.00;99.90;;;;;;5041311;28;20014;-77
2022/08/07 03:47:01;;;;;;;12.63;7.97;;;9.80;99.90;;;;;;5040352;28;20038;-78
2022/08/07 03:49:27;;;;;;;11.93;7.38;;;9.90;99.90;;;;;;5040995;28;20030;-78
2022/08/07 03:51:54;;;;;;;11.45;7.00;;;9.80;99.90;;;;;;5041057;28;20028;-78
2022/08/07 03:54:20;;;;;;;15.38;8.23;;;9.80;99.90;;;;;;5041339;28;20034;-78
2022/08/07 03:56:46;;;;;;;11.70;6.97;;;10.10;99.90;;;;;;5041052;28;20022;-78
2022/08/07 03:59:13;;;;;;;12.90;7.50;;;10.30;99.90;;;;;;5040471;28;20041;-77
2022/08/07 04:01:41;;;;;;;13.50;7.38;;;10.20;99.90;;;;;;5040997;28;20074;-78
2022/08/07 04:04:07;;;;;;;12.48;7.47;;;10.10;99.90;;;;;;5041303;28;20060;-78
2022/08/07 04:06:34;;;;;;;12.10;7.35;;;10.10;99.90;;;;;;5041336;28;20014;-78
2022/08/07 04:09:01;;;;;;;11.25;7.35;;;9.80;99.90;;;;;;5041078;28;20061;-78
2022/08/07 04:11:27;;;;;;;12.27;7.25;;;10.00;99.90;;;;;;5041005;28;20078;-78
2022/08/07 04:13:54;;;;;;;10.93;6.50;;;9.90;99.90;;;;;;5041037;28;20021;-78
2022/08/07 04:16:19;;;;;;;12.40;7.45;;;9.90;99.90;;;;;;5041017;28;20010;-77
2022/08/07 04:18:45;;;;;;;10.35;6.82;;;9.90;99.90;;;;;;5041035;28;20029;-78
2022/08/07 04:21:11;;;;;;;12.25;7.10;;;10.00;99.90;;;;;;5040997;28;20014;-78
2022/08/07 04:23:37;;;;;;;11.65;6.80;;;9.90;99.90;;;;;;5040873;28;20045;-78
2022/08/07 04:26:06;;;;;;;12.45;7.30;;;10.00;99.90;;;;;;5039956;28;20034;-77
2022/08/07 04:28:31;;;;;;;14.98;7.90;;;10.00;99.90;;;;;;5040669;28;20762;-78
2022/08/07 04:30:57;;;;;;;10.07;6.68;;;10.10;99.90;;;;;;5040837;28;20030;-78
2022/08/07 04:33:23;;;;;;;13.13;7.55;;;10.10;99.90;;;;;;5040631;28;20034;-78
2022/08/07 04:35:49;;;;;;;12.05;7.65;;;10.20;99.90;;;;;;5040241;28;20013;-78
2022/08/07 04:38:15;;;;;;;13.05;8.13;;;10.20;99.90;;;;;;5040383;28;20014;-78
2022/08/07 04:40:42;;;;;;;10.40;6.70;;;10.30;99.90;;;;;;5040783;28;20061;-78
2022/08/07 04:43:08;;;;;;;10.77;6.95;;;10.30;93.70;;;;;;5040712;28;20034;-78
2022/08/07 04:45:59;;;;;;;11.50;6.95;;;10.30;38.90;;;;;;5040479;28;20017;-77
2022/08/07 04:48:40;;;;;;;13.45;7.35;;;10.40;1.00;;;;;;5040560;28;20048;-78
2022/08/07 04:51:38;;;;;;;11.10;6.65;;;10.60;54.80;;;;;;5040455;28;20028;-78
2022/08/07 04:54:26;;;;;;;10.15;6.50;;;10.70;1.00;;;;;;5037459;28;20037;-78
2022/08/07 04:56:59;;;;;;;10.23;6.53;;;10.70;1.00;;;;;;5040406;28;20089;-78
2022/08/07 04:59:35;;;;;;;8.90;6.22;;;10.80;1.00;;;;;;5040232;28;20014;-78
2022/08/07 05:02:09;;;;;;;11.68;6.72;;;10.80;1.00;;;;;;5040356;28;20018;-78
2022/08/07 05:04:45;;;;;;;10.10;6.85;;;11.00;1.00;;;;;;5040328;28;20050;-78
2022/08/07 05:07:14;;;;;;;10.98;7.15;;;11.10;1.00;;;;;;5040375;28;20398;-78
2022/08/07 05:09:54;;;;;;;9.75;6.18;;;11.30;99.90;;;;;;5039974;28;20022;-78
2022/08/07 05:12:23;;;;;;;;;;;11.40;1.00;;;;;;5040602;28;20006;-78
2022/08/07 05:14:52;;;;;;;12.80;6.18;;;11.60;1.00;;;;;;5039953;28;19932;-78
2022/08/07 05:17:20;;;;;;;11.25;5.93;;;11.60;1.00;;;;;;5039807;28;20078;-78
2022/08/07 05:19:51;;;;;;;11.95;6.55;;;11.80;1.00;;;;;;5040027;28;20017;-78
2022/08/07 05:22:20;;;;;;;12.40;7.35;;;12.70;1.00;;;;;;5039885;28;20022;-77
2022/08/07 05:24:50;;;;;;;10.77;6.15;;;16.60;99.90;;;;;;5039810;28;20041;-78
2022/08/07 05:27:19;;;;;;;11.02;6.18;;;19.50;99.90;;;;;;5039904;28;20014;-78
2022/08/07 05:29:46;;;;;;;10.80;6.40;;;21.60;99.90;;;;;;5039619;28;20010;-78
2022/08/07 05:32:14;;;;;;;9.55;5.80;;;22.90;99.90;;;;;;5039335;28;20045;-78
2022/08/07 05:34:41;;;;;;;9.48;5.82;;;24.20;99.90;;;;;;5039139;28;20014;-78
2022/08/07 05:37:08;;;;;;;11.27;6.38;;;25.30;99.90;;;;;;5037554;28;20017;-78
2022/08/07 05:39:36;;;;;;;7.50;4.95;;;26.20;99.90;;;;;;5037443;28;20026;-79
2022/08/07 05:42:03;;;;;;;7.75;5.60;;;26.80;99.90;;;;;;5039077;28;20022;-78
2022/08/07 05:44:32;;;;;;;6.65;5.20;;;27.70;99.90;;;;;;5039390;28;20041;-79
2022/08/07 05:46:59;;;;;;;7.35;5.97;;;28.70;99.90;;;;;;5039224;28;20014;-79
2022/08/07 05:49:25;;;;;;;7.18;5.10;;;29.50;99.90;;;;;;5039473;28;20034;-79
2022/08/07 05:51:51;;;;;;;6.70;5.22;;;29.90;99.90;;;;;;5039167;28;20074;-79
2022/08/07 05:54:17;;;;;;;6.90;5.28;;;30.20;99.90;;;;;;5039475;28;20037;-79
2022/08/07 05:56:43;;;;;;;6.80;4.93;;;30.60;99.90;;;;;;5039141;28;20073;-79
2022/08/07 05:59:15;;;;;;;6.10;5.22;;;30.90;99.90;;;;;;5039046;28;20033;-79
2022/08/07 06:01:43;;;;;;;7.18;5.05;;;31.90;99.90;;;;;;5039278;28;20036;-79
2022/08/07 06:04:10;;;;;;;6.35;4.63;;;32.70;99.90;;;;;;5039268;28;20067;-80
2022/08/07 06:06:36;;;;;;;7.57;5.25;;;32.80;99.90;;;;;;5038948;28;20017;-79
2022/08/07 06:09:01;;;;;;;7.75;5.05;;;33.60;99.90;;;;;;5039254;28;20015;-80
2022/08/07 06:11:28;;;;;;;6.35;4.57;;;34.00;99.90;;;;;;5039131;28;20018;-80
2022/08/07 06:13:53;;;;;;;6.57;5.15;;;34.50;99.90;;;;;;5038913;28;20052;-77
2022/08/07 06:16:21;;;;;;;5.95;4.28;;;34.90;99.90;;;;;;5038636;28;20014;-78
2022/08/07 06:18:47;;;;;;;8.65;4.70;;;35.20;99.50;;;;;;5038976;28;20006;-78
2022/08/07 06:21:13;;;;;;;6.15;4.30;;;34.80;98.10;;;;;;5038863;28;20033;-78
2022/08/07 06:23:39;;;;;;;5.65;4.10;;;35.70;96.70;;;;;;5038583;28;20041;-78
2022/08/07 06:26:06;;;;;;;5.45;4.20;;;35.70;95.00;;;;;;5038768;28;20014;-78
2022/08/07 06:28:31;;;;;;;5.05;4.20;;;36.20;93.10;;;;;;5038658;28;20026;-78
2022/08/07 06:30:57;;;;;;;5.28;4.15;;;36.80;91.70;;;;;;5037627;28;20076;-78
2022/08/07 06:33:23;;;;;;;4.38;3.92;;;36.70;90.20;;;;;;5037145;28;20062;-78
2022/08/07 06:35:49;;;;;;;5.28;3.95;;;37.10;87.30;;;;;;5035871;28;20010;-78
2022/08/07 06:38:15;;;;;;;5.13;4.00;;;37.00;84.80;;;;;;5033961;28;20065;-78
2022/08/07 06:40:46;;;;;;;5.22;3.92;;;36.80;82.50;;;;;;5037563;28;20006;-78
2022/08/07 06:43:14;;;;;;;5.80;3.97;;;38.10;80.70;;;;;;5038887;28;20010;-78
2022/08/07 06:45:40;;;;;;;6.07;4.10;;;38.50;76.70;;;;;;5038746;28;20021;-78
2022/08/07 06:48:06;;;;;;;4.25;3.75;;;38.60;72.40;;;;;;5038488;28;20054;-78
2022/08/07 06:50:35;;;;;;;4.00;3.70;;;38.90;71.40;;;;;;5040556;28;20010;-79
2022/08/07 06:53:02;;;;;;;5.28;3.50;;;39.90;68.60;;;;;;5042526;28;20018;-78
2022/08/07 06:55:30;;;;;;;4.00;3.55;;;40.30;64.80;;;;;;5042457;28;20010;-78
2022/08/07 06:58:01;;;;;;;4.15;3.10;;;39.80;60.30;;;;;;5042243;28;20037;-78
2022/08/07 07:00:32;;;;;;;4.05;3.30;;;40.00;60.00;;;;;;5042324;28;20020;-79
2022/08/07 07:02:58;;;;;;;3.42;3.13;;;40.90;57.20;;;;;;5042306;28;20010;-78
2022/08/07 07:05:24;;;;;;;3.58;2.97;;;40.30;54.70;;;;;;5042451;28;20018;-79
2022/08/07 07:07:49;;;;;;;3.83;2.97;;;40.50;52.40;;;;;;5042268;28;20044;-78
2022/08/07 07:10:25;;;;;;;3.83;3.25;;;41.60;50.60;;;;;;5042174;28;20018;-79
2022/08/07 07:12:54;;;;;;;3.78;3.38;;;41.70;48.60;;;;;;5042318;28;20014;-78
2022/08/07 07:15:25;;;;;;;3.53;3.10;;;42.00;46.10;;;;;;5042140;28;20037;-79
2022/08/07 07:18:14;;;;;;;3.60;3.10;;;42.30;43.50;;;;;;5042061;28;20010;-79
2022/08/07 07:20:46;;;;;;;;;;;42.30;41.20;;;;;;5042611;28;20013;-79
2022/08/07 07:23:12;;;;;;;3.95;3.40;;;41.50;39.60;;;;;;5042207;28;19893;-79
2022/08/07 07:25:39;;;;;;;4.30;3.78;;;41.60;39.30;;;;;;5041050;28;20020;-79
2022/08/07 07:28:20;;;;;;;4.30;3.33;;;42.70;37.80;;;;;;5041683;28;20078;-79
2022/08/07 07:30:54;;;;;;;3.85;3.30;;;43.10;36.00;;;;;;5041644;28;20045;-79
2022/08/07 07:33:22;;;;;;;4.38;3.10;;;43.10;34.40;;;;;;5040026;28;20113;-79
2022/08/07 07:35:50;;;;;;;4.47;2.97;;;42.30;32.40;;;;;;5038477;28;20034;-78
2022/08/07 07:38:20;;;;;;;3.97;3.17;;;42.60;31.20;;;;;;5038767;28;20026;-79
2022/08/07 07:40:47;;;;;;;3.45;2.88;;;43.00;30.50;;;;;;5040472;28;20030;-79
2022/08/07 07:43:15;;;;;;;3.38;3.08;;;43.70;28.80;;;;;;5041717;28;20029;-80
2022/08/07 07:45:43;;;;;;;3.60;3.17;;;44.40;27.60;;;;;;5040815;28;20019;-79
2022/08/07 07:48:11;;;;;;;4.88;2.83;;;44.60;26.70;;;;;;5041646;28;20022;-79
2022/08/07 07:50:38;;;;;;;3.55;2.75;;;43.30;25.10;;;;;;5041536;28;20081;-79
2022/08/07 07:53:06;;;;;;;4.38;2.80;;;44.00;24.30;;;;;;5041417;28;20025;-80
2022/08/07 07:55:32;;;;;;;3.00;2.80;;;44.30;23.80;;;;;;5041441;28;20021;-80
2022/08/07 07:57:59;;;;;;;3.70;2.67;;;42.20;20.90;;;;;;5041461;28;20022;-79
2022/08/07 08:00:26;;;;;;;3.90;2.50;;;41.90;20.90;;;;;;5040668;28;20037;-80
2022/08/07 08:02:56;;;;;;;3.60;2.40;;;44.00;22.40;;;;;;5041367;28;20010;-80
2022/08/07 08:05:23;;;;;;;3.30;2.50;;;44.50;21.00;;;;;;5041555;28;20016;-80
2022/08/07 08:07:49;;;;;;;3.47;2.40;;;46.00;19.30;;;;;;5041190;28;20082;-80
2022/08/07 08:10:18;;;;;;;5.00;2.70;;;46.20;18.30;;;;;;5041334;28;20022;-79
2022/08/07 08:12:45;;;;;;;3.08;2.38;;;46.20;16.60;;;;;;5041464;28;20014;-80
2022/08/07 08:15:11;;;;;;;3.05;2.35;;;46.30;16.50;;;;;;5040995;28;20094;-79
2022/08/07 08:17:38;;;;;;;2.47;2.28;;;46.80;14.30;;;;;;5041315;28;20014;-80
2022/08/07 08:20:09;;;;;;;3.63;2.40;;;43.20;12.60;;;;;;5041057;28;20010;-80
2022/08/07 08:28:15;;;;;;;4.20;2.60;;;41.40;16.90;;;;;;5040997;28;20036;-80
2022/08/07 08:30:43;;;;;;;3.97;2.25;;;42.80;15.20;;;;;;5041009;28;20077;-79
2022/08/07 08:33:15;;;;;;;3.47;2.67;;;43.10;15.80;;;;;;5040405;28;20030;-80
2022/08/07 08:35:44;;;;;;;3.65;2.30;;;43.40;15.00;;;;;;5040051;28;20022;-80
2022/08/07 08:38:11;;;;;;;3.22;2.45;;;40.50;13.90;;;;;;5040037;28;20018;-80
2022/08/07 08:40:42;;;;;;;2.13;1.90;;;43.00;15.50;;;;;;5040063;28;20064;-80
2022/08/07 08:43:18;;;;;;;2.85;2.20;;;44.10;14.80;;;;;;5040529;28;20032;-80
2022/08/07 08:46:03;;;;;;;3.03;2.20;;;43.70;12.40;;;;;;5040781;28;20028;-80
2022/08/07 08:48:41;;;;;;;3.15;1.90;;;44.60;12.60;;;;;;5040700;28;20081;-80
2022/08/07 08:51:17;;;;;;;2.08;1.63;;;44.90;11.90;;;;;;5040713;28;20017;-80
2022/08/07 08:53:59;;;;;;;3.90;1.73;;;43.20;11.20;;;;;;5040523;28;20029;-80
2022/08/07 08:56:29;;;;;;;2.80;1.77;;;43.80;11.50;;;;;;5040634;28;20006;-79
2022/08/07 08:59:13;;;;;;;4.05;2.17;;;39.40;12.10;;;;;;5040229;28;20060;-79
2022/08/07 09:01:53;;;;;;;3.03;2.10;;;40.40;12.30;;;;;;5039905;28;20021;-79
2022/08/07 09:04:45;;;;;;;3.17;2.20;;;38.00;11.80;;;;;;5040278;28;20014;-79
2022/08/07 09:07:32;;;;;;;1.88;1.70;;;35.60;16.90;;;;;;5040273;28;20022;-79
2022/08/07 09:10:19;;;;;;;3.45;1.92;;;40.60;15.10;;;;;;5040227;28;20026;-80
2022/08/07 09:13:12;;;;;;;2.97;2.00;;;42.00;14.40;;;;;;5039582;28;20014;-79
2022/08/07 09:16:01;;;;;;;3.97;1.80;;;42.70;13.50;;;;;;5040225;28;20021;-79
2022/08/07 09:18:48;;;;;;;2.80;1.60;;;42.80;12.80;;;;;;5040125;28;20038;-79
2022/08/07 09:21:27;;;;;;;3.53;1.83;;;43.20;13.30;;;;;;5039944;28;20018;-79
2022/08/07 09:24:22;;;;;;;2.53;1.77;;;43.90;13.10;;;;;;5040020;28;20029;-80
2022/08/07 09:27:06;;;;;;;2.33;1.92;;;44.20;11.70;;;;;;5040093;28;20054;-80
2022/08/07 09:29:40;;;;;;;3.75;1.83;;;43.70;11.10;;;;;;5039858;28;20025;-80
2022/08/07 09:32:49;;;;;;;3.22;1.75;;;44.00;11.20;;;;;;5039522;28;20042;-80
2022/08/07 09:35:34;;;;;;;3.17;1.85;;;42.80;11.50;;;;;;5039670;28;20018;-80
2022/08/07 09:38:25;;;;;;;2.50;1.52;;;42.10;10.00;;;;;;5038976;28;20048;-80
2022/08/07 09:41:22;;;;;;;1.70;1.33;;;42.60;10.40;;;;;;5039595;28;20030;-79
2022/08/07 09:43:54;;;;;;;2.20;1.70;;;35.10;11.10;;;;;;5039441;28;20021;-79
2022/08/07 09:46:28;;;;;;;3.40;1.80;;;37.50;14.10;;;;;;5039519;28;20016;-80
2022/08/07 09:49:17;;;;;;;2.03;1.35;;;39.70;13.10;;;;;;5039528;28;20025;-79
2022/08/07 09:51:53;;;;;;;;;;;39.90;11.90;;;;;;5039339;28;20040;-79
2022/08/07 09:54:25;;;;;;;3.00;1.38;;;40.30;12.70;;;;;;5039476;28;19909;-79
2022/08/07 09:57:28;;;;;;;2.47;1.42;;;40.70;11.90;;;;;;5039361;28;20034;-79
2022/08/07 10:00:19;;;;;;;2.08;1.58;;;37.20;12.90;;;;;;5038735;28;20025;-80
2022/08/07 10:02:59;;;;;;;3.97;1.67;;;39.10;13.10;;;;;;5039323;28;20047;-79
2022/08/07 10:05:31;;;;;;;2.17;1.35;;;39.90;12.90;;;;;;5039332;28;20030;-79
2022/08/07 10:08:03;;;;;;;1.77;1.30;;;40.70;11.80;;;;;;5039388;28;20037;-80
2022/08/07 10:10:53;;;;;;;2.75;1.30;;;40.20;11.10;;;;;;5039192;28;20014;-79
2022/08/07 10:13:27;;;;;;;2.63;1.20;;;40.90;11.40;;;;;;5039195;28;20033;-79
2022/08/07 10:15:59;;;;;;;1.73;1.20;;;41.70;10.30;;;;;;5038989;28;20022;-79
2022/08/07 10:18:43;;;;;;;3.03;1.20;;;42.20;9.20;;;;;;5039274;28;20006;-79
2022/08/07 10:21:41;;;;;;;2.15;1.00;;;41.50;8.80;;;;;;5039011;28;20018;-79
2022/08/07 10:24:18;;;;;;;2.15;1.02;;;41.30;8.40;;;;;;5039107;28;20014;-79
2022/08/07 10:27:02;;;;;;;1.15;1.05;;;41.30;8.90;;;;;;5038999;28;20017;-79
2022/08/07 10:29:47;;;;;;;2.42;1.10;;;41.30;7.90;;;;;;5038901;28;20014;-79
2022/08/07 10:32:35;;;;;;;2.88;1.10;;;40.40;8.30;;;;;;5038645;28;20077;-80
2022/08/07 10:35:39;;;;;;;1.37;1.00;;;39.80;9.50;;;;;;5038816;28;20041;-80
2022/08/07 10:38:23;;;;;;;1.42;1.00;;;40.10;9.50;;;;;;5037898;28;20034;-81
2022/08/07 10:41:01;;;;;;;2.47;1.33;;;40.90;8.90;;;;;;5037686;28;20496;-80
2022/08/07 10:43:33;;;;;;;1.65;1.23;;;40.70;8.50;;;;;;5038440;28;20037;-80
2022/08/07 10:46:14;;;;;;;1.52;1.17;;;41.10;9.20;;;;;;5038577;28;20101;-81
2022/08/07 10:48:40;;;;;;;1.90;1.20;;;41.00;8.30;;;;;;5038621;28;20109;-80
2022/08/07 10:51:08;;;;;;;1.52;1.20;;;39.30;8.00;;;;;;5038197;28;20018;-79
2022/08/07 10:53:49;;;;;;;1.48;1.33;;;39.00;9.40;;;;;;5038721;28;20018;-80
2022/08/07 10:56:21;;;;;;;1.98;1.20;;;39.40;10.00;;;;;;5038649;28;20068;-80
2022/08/07 10:59:14;;;;;;;1.58;1.25;;;37.00;9.30;;;;;;5038589;28;20105;-80
2022/08/07 11:01:58;;;;;;;3.10;1.65;;;36.10;11.10;;;;;;5038511;28;20025;-80
2022/08/07 11:04:49;;;;;;;2.33;1.38;;;34.80;14.50;;;;;;5038630;28;20049;-80
2022/08/07 11:07:27;;;;;;;1.70;1.60;;;32.90;12.50;;;;;;5037956;28;20045;-80
2022/08/07 11:10:00;;;;;;;2.03;1.50;;;29.90;12.30;;;;;;5038484;28;20029;-80
2022/08/07 11:12:56;;;;;;;2.33;1.77;;;30.10;13.90;;;;;;5038716;28;20026;-80
2022/08/07 11:15:29;;;;;;;3.53;1.83;;;29.90;14.90;;;;;;5037085;28;20026;-80
2022/08/07 11:18:13;;;;;;;1.83;1.70;;;29.60;15.40;;;;;;5038742;28;20010;-79
2022/08/07 11:20:52;;;;;;;1.88;1.77;;;29.80;16.80;;;;;;5038543;28;20066;-80
2022/08/07 11:23:30;;;;;;;2.55;1.70;;;29.30;17.60;;;;;;5038402;28;20010;-80
2022/08/07 11:26:27;;;;;;;3.00;1.90;;;29.00;18.50;;;;;;5038525;28;20025;-80
2022/08/07 11:29:09;;;;;;;1.88;1.50;;;28.50;18.80;;;;;;5027847;28;20090;-80
2022/08/07 11:32:04;;;;;;;1.70;1.60;;;27.90;19.10;;;;;;5038408;28;20017;-79
2022/08/07 11:34:43;;;;;;;4.55;1.50;;;28.00;20.40;;;;;;5016779;28;20034;-80
2022/08/07 11:37:18;;;;;;;2.13;1.58;;;28.00;20.50;;;;;;5040803;28;20041;-80
2022/08/07 11:40:21;;;;;;;2.35;1.70;;;28.40;21.20;;;;;;5041646;28;20041;-80
2022/08/07 11:42:57;;;;;;;2.25;1.85;;;27.70;21.80;;;;;;5041805;28;20041;-80
2022/08/07 11:45:35;;;;;;;2.35;1.75;;;27.40;23.10;;;;;;5041869;28;20017;-79
2022/08/07 11:48:36;;;;;;;3.17;1.50;;;27.30;23.50;;;;;;5041924;28;20042;-81
2022/08/07 11:51:20;;;;;;;3.55;2.13;;;27.30;23.70;;;;;;5041595;28;20033;-80
2022/08/07 11:54:13;;;;;;;2.15;1.90;;;27.00;25.10;;;;;;5041570;28;20495;-80
2022/08/07 11:57:17;;;;;;;3.42;2.15;;;27.10;25.90;;;;;;5041452;28;20018;-80
2022/08/07 12:00:04;;;;;;;2.95;2.13;;;27.30;26.80;;;;;;5040837;28;20018;-79
2022/08/07 12:02:51;;;;;;;5.03;2.40;;;27.60;27.90;;;;;;5041048;28;20024;-79
2022/08/07 12:05:51;;;;;;;2.50;2.30;;;27.10;28.00;;;;;;5041248;28;20062;-79
2022/08/07 12:08:29;;;;;;;2.53;2.10;;;27.10;29.40;;;;;;5041198;28;20030;-79
2022/08/07 12:10:59;;;;;;;4.35;2.72;;;26.40;29.70;;;;;;5041391;28;20065;-79
2022/08/07 12:13:36;;;;;;;2.67;2.05;;;26.50;32.10;;;;;;5041430;28;20022;-79
2022/08/07 12:16:05;;;;;;;2.35;2.17;;;26.60;33.10;;;;;;5041277;28;20010;-79
2022/08/07 12:18:54;;;;;;;3.40;2.47;;;26.80;35.50;;;;;;5040704;28;20010;-79
2022/08/07 12:21:50;;;;;;;3.05;2.40;;;26.70;35.60;;;;;;5041214;28;20006;-79
2022/08/07 12:27:47;;;;;;;2.30;2.10;;;26.20;37.90;;;;;;5031028;28;20101;-78
2022/08/07 12:30:13;;;;;;;3.78;2.63;;;26.40;39.60;;;;;;5040664;28;20022;-78
2022/08/07 12:33:01;;;;;;;2.55;2.35;;;26.50;41.00;;;;;;5040529;28;20057;-80
2022/08/07 12:35:30;;;;;;;4.10;2.30;;;27.20;42.50;;;;;;5040612;28;20031;-80
2022/08/07 12:37:56;;;;;;;3.63;2.35;;;27.40;43.50;;;;;;5040144;28;20030;-79
2022/08/07 12:40:26;;;;;;;3.90;2.20;;;27.90;44.40;;;;;;5040402;28;20010;-79
2022/08/07 12:42:53;;;;;;;;;;;28.00;44.10;;;;;;5040948;28;20014;-80
2022/08/07 12:45:22;;;;;;;2.17;1.98;;;27.60;44.40;;;;;;5040673;28;19900;-79
2022/08/07 12:48:05;;;;;;;3.00;1.63;;;27.60;46.00;;;;;;5039376;28;20022;-79
2022/08/07 12:50:39;;;;;;;2.22;1.80;;;27.80;44.10;;;;;;5040384;28;20255;-79
2022/08/07 12:53:17;;;;;;;3.53;1.95;;;27.30;44.90;;;;;;5040391;28;20018;-79
2022/08/07 12:56:00;;;;;;;2.70;1.85;;;26.30;44.70;;;;;;5040385;28;20045;-79
2022/08/07 12:58:31;;;;;;;3.22;1.80;;;25.80;45.40;;;;;;5040245;28;20026;-79
2022/08/07 13:01:11;;;;;;;2.55;2.25;;;25.70;46.30;;;;;;5040032;28;20029;-79
2022/08/07 13:03:56;;;;;;;3.15;2.00;;;25.30;47.60;;;;;;5039721;28;20089;-79
2022/08/07 13:06:40;;;;;;;2.95;2.30;;;25.50;49.20;;;;;;5040092;28;20049;-79
2022/08/07 13:09:20;;;;;;;2.58;2.00;;;25.90;50.50;;;;;;5040291;28;20045;-79
2022/08/07 13:11:59;;;;;;;1.70;1.60;;;26.30;51.30;;;;;;5039901;28;20017;-79
2022/08/07 13:14:47;;;;;;;3.80;2.60;;;25.50;49.60;;;;;;5039404;28;20053;-79
2022/08/07 13:17:22;;;;;;;4.03;2.38;;;25.40;53.10;;;;;;5039959;28;20014;-79
2022/08/07 13:19:58;;;;;;;2.85;2.50;;;24.80;55.10;;;;;;5040149;28;20017;-79
2022/08/07 13:22:36;;;;;;;3.67;2.30;;;24.40;56.80;;;;;;5039657;28;20038;-79